Terminal Aerodrome Forecast
Issued by NWS

Home | Current Version | Previous Version | Text Only | Print | Product List | Glossary On
Versions: 1 2 3 4 5 6 7 8 9 10 11 12 13 14 15 16 17 18 19 20 21 22 23 24 25 26 27 28 29 30 31 32 33 34 35 36
000
FTUS43 KDLH 011500 AAA
TAFHIB
TAF AMD
KHIB 011518Z 0115/0212 15009KT P6SM VCSH OVC008
      TEMPO 0117/0119 6SM -RA BR BKN007 OVC014
     FM011900 15007KT 6SM -RA BR OVC007
     FM012100 15006KT 6SM BR OVC007
     FM020300 VRB03KT 3SM BR OVC005
      TEMPO 0204/0208 3/4SM BR=

USA.gov is the U.S. government's official web portal to all federal, state and local government web resources and services.